createdAt,value
2019-03-27T00:01:17.066Z,77.86
2019-03-27T00:03:50.090Z,77.75
2019-03-27T00:06:23.975Z,76.63
2019-03-27T00:08:56.930Z,78.29
2019-03-27T00:11:29.001Z,78.98
2019-03-27T00:13:59.641Z,79.38
2019-03-27T00:16:28.734Z,76.87
2019-03-27T00:19:03.752Z,76.79
2019-03-27T00:21:41.881Z,78.13
2019-03-27T00:24:12.940Z,79.63
2019-03-27T00:26:43.859Z,77.82
2019-03-27T00:29:15.101Z,80.86
2019-03-27T00:31:44.095Z,81.45
2019-03-27T00:34:14.934Z,81.97
2019-03-27T00:36:46.799Z,81.64
2019-03-27T00:39:17.941Z,81.56
2019-03-27T00:41:51.171Z,81.26
2019-03-27T00:44:24.334Z,81.60
2019-03-27T00:46:55.150Z,78.61
2019-03-27T00:49:28.857Z,79.72
2019-03-27T00:51:59.901Z,80.02
2019-03-27T00:54:29.354Z,77.61
2019-03-27T00:56:59.249Z,79.27
2019-03-27T01:02:12.662Z,77.05
2019-03-27T01:04:45.853Z,75.98
2019-03-27T01:07:14.150Z,77.38
2019-03-27T01:09:47.136Z,78.70
2019-03-27T01:12:14.672Z,78.04
2019-03-27T01:14:47.630Z,77.92
2019-03-27T01:17:19.512Z,78.41
2019-03-27T01:19:53.700Z,79.34
2019-03-27T01:22:25.210Z,79.08
2019-03-27T01:24:54.079Z,80.10
2019-03-27T01:27:25.413Z,81.14
2019-03-27T01:30:00.355Z,80.94
2019-03-27T01:32:31.295Z,81.05
2019-03-27T01:37:44.558Z,81.25
2019-03-27T01:40:15.461Z,80.97
2019-03-27T01:42:44.582Z,81.42
2019-03-27T01:45:16.523Z,79.15
2019-03-27T01:47:52.576Z,78.48
2019-03-27T01:50:25.150Z,79.06
2019-03-27T01:52:56.923Z,79.62
2019-03-27T01:55:27.046Z,80.37
2019-03-27T01:58:03.197Z,80.28
2019-03-27T02:00:31.359Z,80.42
2019-03-27T02:03:03.557Z,81.30
2019-03-27T02:05:44.445Z,79.45
2019-03-27T02:08:15.462Z,78.82
2019-03-27T02:10:47.241Z,83.95
2019-03-27T02:13:16.319Z,83.51
2019-03-27T02:15:48.081Z,85.14
2019-03-27T02:18:21.861Z,86.39
2019-03-27T02:20:56.398Z,86.04
2019-03-27T02:23:25.802Z,84.67
2019-03-27T02:28:39.051Z,85.85
2019-03-27T02:31:10.022Z,84.64
2019-03-27T02:33:40.338Z,85.58
2019-03-27T02:36:09.405Z,85.61
2019-03-27T02:38:45.036Z,86.59
2019-03-27T02:41:14.040Z,86.24
2019-03-27T02:43:43.686Z,84.26
2019-03-27T02:46:24.643Z,85.18
2019-03-27T02:48:44.362Z,86.12
2019-03-27T02:51:17.496Z,86.34
2019-03-27T02:53:46.293Z,86.64
2019-03-27T02:56:15.916Z,86.96
2019-03-27T03:01:27.822Z,86.98
2019-03-27T03:04:00.001Z,86.56
2019-03-27T03:06:34.567Z,85.84
2019-03-27T03:09:06.215Z,85.87
2019-03-27T03:11:37.593Z,86.20
2019-03-27T03:14:07.257Z,85.97
2019-03-27T03:16:42.707Z,85.00
2019-03-27T03:19:10.747Z,85.38
2019-03-27T03:21:42.021Z,85.93
2019-03-27T03:24:11.936Z,84.89
2019-03-27T03:26:43.059Z,82.50
2019-03-27T03:29:12.965Z,81.83
2019-03-27T03:31:43.979Z,80.75
2019-03-27T03:34:13.549Z,81.63
2019-03-27T03:36:44.493Z,81.53
2019-03-27T03:39:18.450Z,79.98
2019-03-27T03:41:49.478Z,80.63
2019-03-27T03:44:20.182Z,80.78
2019-03-27T03:47:00.085Z,81.47
2019-03-27T03:49:24.127Z,81.19
2019-03-27T03:51:55.691Z,82.56
2019-03-27T03:54:29.408Z,83.09
2019-03-27T03:59:42.530Z,82.99
2019-03-27T04:02:12.624Z,82.74
2019-03-27T04:04:42.557Z,82.01
2019-03-27T04:07:15.229Z,81.37
2019-03-27T04:09:49.760Z,82.82
2019-03-27T04:12:24.904Z,82.04
2019-03-27T04:14:54.299Z,83.03
2019-03-27T04:17:24.548Z,83.86
2019-03-27T04:19:57.202Z,83.74
2019-03-27T04:22:28.351Z,83.96
2019-03-27T04:24:57.188Z,82.65
2019-03-27T04:27:26.434Z,83.17
2019-03-27T04:29:59.786Z,83.43
2019-03-27T04:32:30.627Z,82.81
2019-03-27T04:35:00.600Z,82.20
2019-03-27T04:37:30.391Z,83.51
2019-03-27T04:39:59.774Z,82.09
2019-03-27T04:42:38.236Z,82.47
2019-03-27T04:45:07.801Z,83.24
2019-03-27T04:47:38.340Z,82.40
2019-03-27T04:50:08.745Z,79.68
2019-03-27T04:52:39.889Z,81.14
2019-03-27T04:55:10.254Z,79.86
2019-03-27T04:57:43.322Z,81.26
2019-03-27T05:00:14.326Z,81.48
2019-03-27T05:02:44.771Z,79.68
2019-03-27T05:05:14.858Z,81.20
2019-03-27T05:07:45.186Z,79.52
2019-03-27T05:10:16.973Z,80.82
2019-03-27T05:12:48.312Z,83.09
2019-03-27T05:18:05.381Z,83.58
2019-03-27T05:20:35.772Z,83.62
2019-03-27T05:23:04.875Z,83.49
2019-03-27T05:25:35.371Z,82.00
2019-03-27T05:28:05.942Z,81.53
2019-03-27T05:30:36.667Z,82.95
2019-03-27T05:33:07.716Z,81.39
2019-03-27T05:35:44.218Z,82.67
2019-03-27T05:38:14.712Z,82.93
2019-03-27T05:40:47.016Z,82.69
2019-03-27T05:43:17.902Z,82.43
2019-03-27T05:45:48.102Z,82.11
2019-03-27T05:48:17.359Z,80.66
2019-03-27T05:53:29.161Z,82.27
2019-03-27T05:55:58.849Z,81.82
2019-03-27T05:58:32.069Z,81.97
2019-03-27T06:01:01.463Z,82.05
2019-03-27T06:03:31.793Z,81.68
2019-03-27T06:06:01.701Z,81.75
2019-03-27T06:08:31.618Z,82.08
2019-03-27T06:11:05.935Z,81.43
2019-03-27T06:13:37.167Z,82.59
2019-03-27T06:16:10.041Z,82.78
2019-03-27T06:18:42.844Z,83.00
2019-03-27T06:21:13.069Z,83.56
2019-03-27T06:23:44.246Z,82.54
2019-03-27T06:26:15.147Z,83.66
2019-03-27T06:28:47.061Z,82.90
2019-03-27T06:31:17.356Z,82.23
2019-03-27T06:33:50.196Z,83.03
2019-03-27T06:36:24.117Z,82.06
2019-03-27T06:38:56.830Z,81.82
2019-03-27T06:41:27.865Z,82.32
2019-03-27T06:43:56.612Z,82.69
2019-03-27T06:46:28.455Z,81.63
2019-03-27T06:49:07.791Z,81.17
2019-03-27T06:51:40.259Z,80.62
2019-03-27T06:54:09.838Z,79.90
2019-03-27T06:56:44.731Z,80.20
2019-03-27T06:59:15.986Z,79.52
2019-03-27T07:01:47.951Z,79.70
2019-03-27T07:04:23.717Z,80.01
2019-03-27T07:06:55.582Z,80.22
2019-03-27T07:09:28.878Z,79.11
2019-03-27T07:12:03.166Z,79.48
2019-03-27T07:14:34.211Z,77.99
2019-03-27T07:17:07.741Z,77.79
2019-03-27T07:19:36.683Z,78.11
2019-03-27T07:22:08.966Z,78.76
2019-03-27T07:27:19.884Z,77.88
2019-03-27T07:29:51.825Z,77.04
2019-03-27T07:32:25.423Z,75.58
2019-03-27T07:34:54.728Z,76.09
2019-03-27T07:37:24.231Z,75.48
2019-03-27T07:39:52.563Z,75.18
2019-03-27T07:42:21.551Z,75.14
2019-03-27T07:44:51.902Z,75.61
2019-03-27T07:47:22.225Z,74.36
2019-03-27T07:49:54.468Z,74.36
2019-03-27T07:52:24.429Z,73.86
2019-03-27T07:54:55.379Z,75.02
2019-03-27T07:57:26.377Z,74.17
2019-03-27T08:00:03.159Z,75.30
2019-03-27T08:02:34.964Z,73.07
2019-03-27T08:05:04.963Z,73.10
2019-03-27T08:07:36.103Z,72.12
2019-03-27T08:10:11.220Z,71.69
2019-03-27T08:12:42.809Z,72.48
2019-03-27T08:15:14.141Z,70.87
2019-03-27T08:17:45.285Z,69.75
2019-03-27T08:20:14.746Z,71.24
2019-03-27T08:22:48.310Z,70.56
2019-03-27T08:25:19.657Z,71.21
2019-03-27T08:27:52.111Z,68.11
2019-03-27T08:30:24.077Z,67.87
2019-03-27T08:32:57.555Z,68.63
2019-03-27T08:35:27.674Z,67.46
2019-03-27T08:38:04.040Z,66.86
2019-03-27T08:43:21.233Z,66.21
2019-03-27T08:45:45.090Z,65.11
2019-03-27T08:48:13.711Z,65.64
2019-03-27T08:50:46.224Z,65.27
2019-03-27T08:53:17.085Z,63.23
2019-03-27T08:55:46.236Z,63.80
2019-03-27T08:58:16.991Z,63.91
2019-03-27T09:00:49.964Z,63.63
2019-03-27T09:03:20.962Z,64.17
2019-03-27T09:05:51.546Z,62.48
2019-03-27T09:08:30.585Z,63.60
2019-03-27T09:11:05.561Z,61.97
2019-03-27T09:13:37.238Z,63.05
2019-03-27T09:16:07.081Z,63.45
2019-03-27T09:18:40.993Z,61.90
2019-03-27T09:21:13.053Z,62.07
2019-03-27T09:23:45.564Z,60.07
2019-03-27T09:26:11.835Z,61.08
2019-03-27T09:31:44.701Z,61.38
2019-03-27T09:34:05.482Z,60.40
2019-03-27T09:36:39.854Z,59.97
2019-03-27T09:39:12.558Z,61.24
2019-03-27T09:41:42.153Z,61.47
2019-03-27T09:44:17.220Z,60.45
2019-03-27T09:46:47.205Z,59.59
2019-03-27T09:49:19.178Z,59.55
2019-03-27T09:51:51.108Z,57.50
2019-03-27T09:54:20.994Z,58.52
2019-03-27T09:56:52.303Z,56.76
2019-03-27T09:59:21.749Z,58.65
2019-03-27T10:01:53.137Z,57.61
2019-03-27T10:04:22.270Z,56.04
2019-03-27T10:06:53.441Z,54.41
2019-03-27T10:09:25.437Z,55.73
2019-03-27T10:11:55.371Z,54.13
2019-03-27T10:14:25.388Z,54.92
2019-03-27T10:16:59.410Z,54.57
2019-03-27T10:19:30.438Z,53.68
2019-03-27T10:22:02.732Z,52.87
2019-03-27T10:24:35.183Z,49.90
2019-03-27T10:27:09.687Z,52.04
2019-03-27T10:29:40.485Z,50.37
2019-03-27T10:32:11.586Z,50.22
2019-03-27T10:34:46.105Z,48.34
2019-03-27T10:37:17.423Z,48.70
2019-03-27T10:39:50.623Z,51.86
2019-03-27T10:42:20.459Z,52.22
2019-03-27T10:44:54.105Z,51.74
2019-03-27T10:47:26.577Z,51.35
2019-03-27T10:49:56.445Z,49.35
2019-03-27T10:52:31.890Z,50.93
2019-03-27T10:55:03.978Z,48.56
2019-03-27T10:57:34.345Z,50.15
2019-03-27T11:00:06.189Z,50.57
2019-03-27T11:02:38.333Z,49.91
2019-03-27T11:05:07.936Z,49.37
2019-03-27T11:07:39.468Z,49.42
2019-03-27T11:10:11.042Z,49.09
2019-03-27T11:12:42.540Z,49.67
2019-03-27T11:15:13.619Z,51.17
2019-03-27T11:17:44.370Z,49.94
2019-03-27T11:20:31.479Z,49.94
2019-03-27T11:22:49.647Z,50.53
2019-03-27T11:25:23.208Z,48.73
2019-03-27T11:27:58.752Z,46.28
2019-03-27T11:30:38.415Z,47.37
2019-03-27T11:33:10.627Z,46.93
2019-03-27T11:35:42.605Z,46.25
2019-03-27T11:40:50.351Z,45.16
2019-03-27T11:43:21.188Z,46.77
2019-03-27T11:45:55.153Z,45.94
2019-03-27T11:48:27.255Z,48.39
2019-03-27T11:50:59.428Z,42.78
2019-03-27T11:53:30.105Z,43.71
2019-03-27T11:56:03.354Z,43.64
2019-03-27T12:01:17.405Z,44.04
2019-03-27T12:03:47.356Z,44.19
2019-03-27T12:06:19.305Z,45.16
2019-03-27T12:08:50.925Z,45.50
2019-03-27T12:11:19.340Z,48.14
2019-03-27T12:13:52.288Z,46.59
2019-03-27T12:16:23.613Z,46.65
2019-03-27T12:21:47.803Z,47.65
2019-03-27T12:24:20.711Z,48.74
2019-03-27T12:26:50.877Z,46.39
2019-03-27T12:29:21.505Z,48.15
2019-03-27T12:31:53.858Z,46.15
2019-03-27T12:34:23.237Z,45.41
2019-03-27T12:36:54.834Z,47.06
2019-03-27T12:39:26.979Z,46.92
2019-03-27T12:41:58.169Z,46.81
2019-03-27T12:44:37.337Z,46.87
2019-03-27T12:47:02.580Z,46.95
2019-03-27T12:49:32.552Z,48.40
2019-03-27T12:52:05.621Z,46.94
2019-03-27T12:54:35.590Z,47.88
2019-03-27T12:57:08.464Z,48.80
2019-03-27T12:59:37.241Z,48.83
2019-03-27T13:02:07.495Z,45.04
2019-03-27T13:04:38.597Z,46.88
2019-03-27T13:07:10.640Z,47.49
2019-03-27T13:09:41.602Z,48.16
2019-03-27T13:12:11.936Z,47.21
2019-03-27T13:14:46.387Z,47.21
2019-03-27T13:17:11.854Z,47.60
2019-03-27T13:19:43.818Z,47.19
2019-03-27T13:22:14.470Z,49.11
2019-03-27T13:24:50.188Z,48.01
2019-03-27T13:27:26.791Z,48.34
2019-03-27T13:29:59.936Z,48.56
2019-03-27T13:32:29.563Z,49.54
2019-03-27T13:34:59.810Z,49.39
2019-03-27T13:37:29.224Z,49.13
2019-03-27T13:40:03.637Z,50.47
2019-03-27T13:42:36.302Z,51.82
2019-03-27T13:45:08.399Z,49.62
2019-03-27T13:47:40.143Z,49.69
2019-03-27T13:50:12.691Z,51.47
2019-03-27T13:52:40.096Z,51.68
2019-03-27T13:55:09.509Z,49.21
2019-03-27T13:57:39.380Z,49.65
2019-03-27T14:00:11.094Z,49.48
2019-03-27T14:02:40.491Z,50.14
2019-03-27T14:05:15.413Z,48.05
2019-03-27T14:07:53.380Z,48.43
2019-03-27T14:10:25.648Z,48.99
2019-03-27T14:12:56.096Z,48.87
2019-03-27T14:15:25.968Z,48.19
2019-03-27T14:20:37.082Z,46.71
2019-03-27T14:23:07.591Z,48.08
2019-03-27T14:25:38.509Z,46.91
2019-03-27T14:28:06.999Z,47.56
2019-03-27T14:30:54.542Z,48.24
2019-03-27T14:33:23.946Z,46.43
2019-03-27T14:38:43.566Z,48.90
2019-03-27T14:41:16.637Z,47.51
2019-03-27T14:43:48.595Z,47.31
2019-03-27T14:46:23.607Z,46.45
2019-03-27T14:48:54.043Z,45.10
2019-03-27T14:51:24.072Z,44.84
2019-03-27T14:53:54.569Z,47.07
2019-03-27T14:56:24.239Z,45.61
2019-03-27T14:58:53.663Z,45.10
2019-03-27T15:01:23.350Z,46.86
2019-03-27T15:06:41.076Z,47.16
2019-03-27T15:09:11.913Z,47.93
2019-03-27T15:11:43.074Z,47.53
2019-03-27T15:14:17.351Z,45.39
2019-03-27T15:16:48.306Z,44.72
2019-03-27T15:19:17.720Z,47.40
2019-03-27T15:21:52.032Z,46.41
2019-03-27T15:24:23.394Z,47.77
2019-03-27T15:26:53.253Z,48.08
2019-03-27T15:29:25.052Z,47.22
2019-03-27T15:31:58.881Z,47.47
2019-03-27T15:34:30.001Z,47.14
2019-03-27T15:37:02.886Z,46.04
2019-03-27T15:39:36.422Z,45.57
2019-03-27T15:42:09.322Z,47.29
2019-03-27T15:44:41.357Z,45.66
2019-03-27T15:47:12.153Z,46.11
2019-03-27T15:49:43.908Z,45.16
2019-03-27T15:52:17.321Z,45.04
2019-03-27T15:54:48.718Z,47.15
2019-03-27T15:57:18.897Z,48.74
2019-03-27T15:59:48.910Z,47.93
2019-03-27T16:02:18.769Z,46.85
2019-03-27T16:04:49.885Z,48.61
2019-03-27T16:07:21.748Z,47.89
2019-03-27T16:09:53.159Z,47.82
2019-03-27T16:12:23.008Z,48.15
2019-03-27T16:14:55.284Z,48.68
2019-03-27T16:17:29.227Z,49.20
2019-03-27T16:19:59.800Z,47.58
2019-03-27T16:22:29.585Z,49.24
2019-03-27T16:25:00.138Z,48.87
2019-03-27T16:27:30.156Z,47.90
2019-03-27T16:30:00.790Z,49.02
2019-03-27T16:35:13.154Z,48.31
2019-03-27T16:37:45.375Z,48.61
2019-03-27T16:40:18.383Z,50.20
2019-03-27T16:42:53.517Z,48.87
2019-03-27T16:45:24.972Z,49.02
2019-03-27T16:48:02.751Z,49.26
2019-03-27T16:50:35.808Z,49.48
2019-03-27T16:53:07.904Z,50.05
2019-03-27T16:58:16.640Z,49.77
2019-03-27T17:00:49.955Z,50.08
2019-03-27T17:03:22.281Z,50.10
2019-03-27T17:05:54.174Z,50.93
2019-03-27T17:11:12.531Z,53.63
2019-03-27T17:13:45.210Z,53.25
2019-03-27T17:16:18.608Z,52.26
2019-03-27T17:18:50.648Z,53.06
2019-03-27T17:21:21.653Z,53.80
2019-03-27T17:23:54.779Z,55.01
2019-03-27T17:26:28.630Z,53.95
2019-03-27T17:29:01.260Z,55.01
2019-03-27T17:31:32.819Z,55.53
2019-03-27T17:34:05.538Z,56.03
2019-03-27T17:36:36.322Z,55.46
2019-03-27T17:39:09.075Z,55.68
2019-03-27T17:41:42.120Z,55.60
2019-03-27T17:44:14.289Z,56.80
2019-03-27T17:46:50.034Z,56.21
2019-03-27T17:49:16.515Z,55.63
2019-03-27T17:51:48.027Z,57.61
2019-03-27T17:54:20.652Z,57.38
2019-03-27T17:56:51.342Z,57.45
2019-03-27T17:59:27.376Z,57.71
2019-03-27T18:01:58.536Z,58.49
2019-03-27T18:04:31.423Z,57.76
2019-03-27T18:07:04.305Z,59.12
2019-03-27T18:09:35.881Z,62.08
2019-03-27T18:12:08.336Z,63.35
2019-03-27T18:14:38.431Z,62.29
2019-03-27T18:17:11.971Z,62.27
2019-03-27T18:19:42.277Z,62.86
2019-03-27T18:22:15.294Z,63.12
2019-03-27T18:24:50.399Z,63.65
2019-03-27T18:27:20.427Z,63.83
2019-03-27T18:29:57.395Z,64.34
2019-03-27T18:32:29.254Z,63.81
2019-03-27T18:34:59.459Z,64.44
2019-03-27T18:37:31.638Z,64.56
2019-03-27T18:40:05.853Z,65.61
2019-03-27T18:42:36.309Z,66.00
2019-03-27T18:45:05.987Z,64.97
2019-03-27T18:47:39.094Z,66.05
2019-03-27T18:50:08.747Z,66.54
2019-03-27T18:52:38.065Z,67.20
2019-03-27T18:55:25.485Z,66.97
2019-03-27T18:57:41.908Z,67.14
2019-03-27T19:00:12.698Z,66.91
2019-03-27T19:02:44.275Z,67.48
2019-03-27T19:07:52.143Z,68.80
2019-03-27T19:10:24.367Z,69.15
2019-03-27T19:12:56.251Z,68.83
2019-03-27T19:15:26.217Z,69.58
2019-03-27T19:17:55.153Z,69.95
2019-03-27T19:20:29.682Z,69.81
2019-03-27T19:22:59.389Z,71.02
2019-03-27T19:25:29.688Z,70.77
2019-03-27T19:28:01.330Z,70.32
2019-03-27T19:30:34.562Z,70.15
2019-03-27T19:33:03.664Z,70.02
2019-03-27T19:38:16.695Z,70.37
2019-03-27T19:40:46.528Z,70.72
2019-03-27T19:43:16.607Z,70.76
2019-03-27T19:45:47.714Z,70.92
2019-03-27T19:48:17.977Z,69.89
2019-03-27T19:50:49.545Z,70.59
2019-03-27T19:53:19.562Z,71.11
2019-03-27T19:58:30.961Z,71.30
2019-03-27T20:01:02.669Z,70.90
2019-03-27T20:03:34.412Z,71.33
2019-03-27T20:06:03.821Z,71.11
2019-03-27T20:08:42.837Z,70.69
2019-03-27T20:11:12.317Z,70.27
2019-03-27T20:13:43.518Z,69.16
2019-03-27T20:16:15.870Z,69.37
2019-03-27T20:18:46.852Z,69.70
2019-03-27T20:21:18.422Z,70.01
2019-03-27T20:23:50.404Z,70.02
2019-03-27T20:26:24.494Z,70.59
2019-03-27T20:28:55.023Z,70.28
2019-03-27T20:31:26.274Z,70.60
2019-03-27T20:34:01.917Z,70.82
2019-03-27T20:36:40.542Z,70.59
2019-03-27T20:39:11.268Z,71.00
2019-03-27T20:41:43.355Z,71.77
2019-03-27T20:44:15.077Z,71.50
2019-03-27T20:46:47.187Z,71.98
2019-03-27T20:49:17.595Z,72.28
2019-03-27T20:51:47.127Z,72.33
2019-03-27T20:54:23.455Z,71.69
2019-03-27T20:59:37.334Z,71.56
2019-03-27T21:02:08.070Z,71.71
2019-03-27T21:04:41.434Z,72.37
2019-03-27T21:07:12.480Z,72.28
2019-03-27T21:09:43.994Z,72.13
2019-03-27T21:12:16.715Z,72.33
2019-03-27T21:14:48.498Z,72.71
2019-03-27T21:17:21.562Z,73.02
2019-03-27T21:19:54.135Z,72.89
2019-03-27T21:22:30.807Z,73.46
2019-03-27T21:25:09.106Z,73.96
2019-03-27T21:27:36.602Z,73.96
2019-03-27T21:32:49.208Z,73.42
2019-03-27T21:35:20.555Z,73.30
2019-03-27T21:37:52.825Z,73.63
2019-03-27T21:43:02.793Z,73.26
2019-03-27T21:45:32.811Z,73.24
2019-03-27T21:48:07.934Z,72.69
2019-03-27T21:53:22.523Z,72.23
2019-03-27T21:55:53.460Z,73.12
2019-03-27T21:58:24.804Z,72.33
2019-03-27T22:01:02.891Z,71.50
2019-03-27T22:03:34.688Z,71.53
2019-03-27T22:06:04.892Z,71.81
2019-03-27T22:08:36.648Z,72.66
2019-03-27T22:11:09.942Z,71.64
2019-03-27T22:13:43.934Z,73.00
2019-03-27T22:16:21.148Z,73.66
2019-03-27T22:18:52.998Z,73.46
2019-03-27T22:21:27.928Z,73.34
2019-03-27T22:23:54.470Z,72.36
2019-03-27T22:26:26.007Z,73.37
2019-03-27T22:29:00.465Z,73.74
2019-03-27T22:31:35.801Z,73.16
2019-03-27T22:34:03.955Z,72.87
2019-03-27T22:36:36.597Z,72.40
2019-03-27T22:39:11.361Z,72.33
2019-03-27T22:41:48.233Z,72.53
2019-03-27T22:44:19.152Z,72.67
2019-03-27T22:46:54.249Z,72.79
2019-03-27T22:49:31.525Z,71.48
2019-03-27T22:54:45.559Z,72.37
2019-03-27T22:57:16.423Z,72.19
2019-03-27T22:59:44.971Z,71.78
2019-03-27T23:05:00.069Z,72.19
2019-03-27T23:07:33.035Z,72.55
2019-03-27T23:10:06.963Z,73.37
2019-03-27T23:12:39.696Z,71.02
2019-03-27T23:15:12.726Z,72.54
2019-03-27T23:20:26.121Z,73.84
2019-03-27T23:22:56.099Z,72.67
2019-03-27T23:25:26.074Z,71.56
2019-03-27T23:27:58.993Z,71.33
2019-03-27T23:30:31.191Z,70.42
2019-03-27T23:33:02.512Z,72.01
2019-03-27T23:35:34.656Z,72.66
2019-03-27T23:38:04.589Z,73.10
2019-03-27T23:40:40.342Z,73.02
2019-03-27T23:43:12.991Z,73.73
2019-03-27T23:45:41.094Z,72.81
2019-03-27T23:48:14.657Z,74.33
2019-03-27T23:50:47.062Z,73.74
2019-03-27T23:53:18.518Z,73.91
2019-03-27T23:58:34.747Z,76.34
